Terminal Aerodrome Forecast
Issued by NWS

Home | Current Version | Previous Version | Text Only | Print | Product List | Glossary On
Versions: 1 2 3 4 5 6 7 8 9 10 11 12 13 14 15 16 17 18 19 20 21 22 23 24 25 26 27
000
FTUS44 KLIX 212300 RRA
TAFHDC
TAF
KHDC 212340Z 2200/2224 11006KT P6SM SCT008 BKN020
      TEMPO 2206/2210 BKN008
     FM221000 VRB03KT 3SM BR BKN003
     FM221500 16005KT P6SM BKN018=

USA.gov is the U.S. government's official web portal to all federal, state and local government web resources and services.